createdAt,value
2023-02-09T00:01:44.792Z,-1.10
2023-02-09T00:04:15.878Z,-1.10
2023-02-09T00:06:47.068Z,-1.20
2023-02-09T00:09:18.075Z,-1.20
2023-02-09T00:12:06.590Z,-1.30
2023-02-09T00:14:37.811Z,-1.30
2023-02-09T00:17:10.198Z,-1.40
2023-02-09T00:19:41.278Z,-1.30
2023-02-09T00:22:12.274Z,-1.30
2023-02-09T00:24:43.539Z,-1.40
2023-02-09T00:27:14.618Z,-1.20
2023-02-09T00:29:46.130Z,-1.30
2023-02-09T00:32:17.276Z,-1.30
2023-02-09T00:34:48.733Z,-1.60
2023-02-09T00:37:19.614Z,-1.00
2023-02-09T00:39:50.781Z,-1.00
2023-02-09T00:42:21.550Z,-1.20
2023-02-09T00:44:52.266Z,-1.50
2023-02-09T00:47:22.955Z,-1.60
2023-02-09T00:49:53.690Z,-1.90
2023-02-09T00:52:24.372Z,-1.80
2023-02-09T00:54:55.017Z,-1.90
2023-02-09T00:57:25.633Z,-1.80
2023-02-09T00:59:56.278Z,-1.90
2023-02-09T01:02:27.435Z,-2.00
2023-02-09T01:04:58.139Z,-1.90
2023-02-09T01:07:28.804Z,-1.40
2023-02-09T01:10:00.244Z,-1.60
2023-02-09T01:12:31.199Z,-1.90
2023-02-09T01:15:03.140Z,-1.80
2023-02-09T01:17:33.941Z,-1.80
2023-02-09T01:20:05.703Z,-1.90
2023-02-09T01:22:37.377Z,-1.80
2023-02-09T01:25:09.963Z,-1.70
2023-02-09T01:27:42.401Z,-1.50
2023-02-09T01:30:15.768Z,-1.40
2023-02-09T01:32:46.880Z,-1.40
2023-02-09T01:35:17.660Z,-1.40
2023-02-09T01:37:48.305Z,-1.50
2023-02-09T01:40:19.110Z,-1.40
2023-02-09T01:42:49.702Z,-1.50
2023-02-09T01:45:26.280Z,-1.60
2023-02-09T01:48:01.666Z,-1.70
2023-02-09T01:50:35.465Z,-1.90
2023-02-09T01:53:07.812Z,-2.00
2023-02-09T01:55:41.963Z,-2.20
2023-02-09T01:58:15.726Z,-2.30
2023-02-09T02:00:47.718Z,-2.50
2023-02-09T02:03:21.282Z,-2.50
2023-02-09T02:05:54.776Z,-2.50
2023-02-09T02:08:28.630Z,-2.40
2023-02-09T02:11:00.145Z,-2.20
2023-02-09T02:13:31.117Z,-1.90
2023-02-09T02:16:06.522Z,-1.80
2023-02-09T02:18:54.166Z,-1.80
2023-02-09T02:21:51.115Z,-1.80
2023-02-09T02:24:45.402Z,-1.80
2023-02-09T02:27:20.510Z,-1.80
2023-02-09T02:30:07.707Z,-1.80
2023-02-09T02:32:54.306Z,-2.00
2023-02-09T02:35:28.903Z,-1.90
2023-02-09T02:38:03.666Z,-1.80
2023-02-09T02:40:47.129Z,-1.70
2023-02-09T02:43:24.109Z,-1.80
2023-02-09T02:45:59.577Z,-1.80
2023-02-09T02:48:36.298Z,-1.80
2023-02-09T02:51:10.755Z,-2.20
2023-02-09T02:53:44.665Z,-2.20
2023-02-09T02:56:19.280Z,-2.20
2023-02-09T02:58:52.531Z,-2.30
2023-02-09T03:01:26.618Z,-2.30
2023-02-09T03:03:58.773Z,-2.30
2023-02-09T03:06:30.962Z,-2.40
2023-02-09T03:09:01.966Z,-2.50
2023-02-09T03:11:36.262Z,-2.50
2023-02-09T03:14:36.712Z,-2.40
2023-02-09T03:17:16.496Z,-2.30
2023-02-09T03:19:50.120Z,-2.20
2023-02-09T03:22:25.163Z,-2.10
2023-02-09T03:24:59.142Z,-2.30
2023-02-09T03:27:32.653Z,-2.20
2023-02-09T03:30:05.324Z,-2.20
2023-02-09T03:32:40.004Z,-2.30
2023-02-09T03:35:13.556Z,-2.40
2023-02-09T03:37:44.579Z,-2.30
2023-02-09T03:40:15.910Z,-2.40
2023-02-09T03:42:46.890Z,-2.30
2023-02-09T03:45:18.206Z,-2.50
2023-02-09T03:47:49.407Z,-2.50
2023-02-09T03:50:20.553Z,-2.40
2023-02-09T03:52:51.666Z,-2.50
2023-02-09T03:55:22.528Z,-2.60
2023-02-09T03:57:53.654Z,-2.40
2023-02-09T04:00:25.089Z,-2.50
2023-02-09T04:02:56.574Z,-2.40
2023-02-09T04:05:27.341Z,-2.30
2023-02-09T04:07:59.495Z,-2.60
2023-02-09T04:10:30.260Z,-2.60
2023-02-09T04:13:00.883Z,-2.60
2023-02-09T04:15:31.532Z,-2.50
2023-02-09T04:18:02.129Z,-2.50
2023-02-09T04:20:32.850Z,-2.60
2023-02-09T04:23:03.488Z,-2.60
2023-02-09T04:25:34.159Z,-2.40
2023-02-09T04:28:04.997Z,-1.90
2023-02-09T04:30:35.724Z,-1.80
2023-02-09T04:33:06.607Z,-1.60
2023-02-09T04:35:37.262Z,-1.80
2023-02-09T04:38:07.873Z,-2.10
2023-02-09T04:40:38.523Z,-2.10
2023-02-09T04:43:09.144Z,-2.40
2023-02-09T04:45:42.142Z,-2.60
2023-02-09T04:48:15.855Z,-2.60
2023-02-09T04:50:47.159Z,-2.70
2023-02-09T04:53:19.056Z,-2.60
2023-02-09T04:55:52.198Z,-2.60
2023-02-09T04:58:41.326Z,-2.50
2023-02-09T05:01:15.191Z,-2.60
2023-02-09T05:03:45.961Z,-2.60
2023-02-09T05:06:16.713Z,-2.50
2023-02-09T05:08:47.382Z,-2.40
2023-02-09T05:11:18.488Z,-2.50
2023-02-09T05:13:49.115Z,-2.50
2023-02-09T05:16:19.998Z,-2.60
2023-02-09T05:21:29.948Z,-2.50
2023-02-09T05:24:00.742Z,-2.50
2023-02-09T05:26:31.470Z,-2.40
2023-02-09T05:29:02.145Z,-2.30
2023-02-09T05:31:33.003Z,-2.20
2023-02-09T05:34:03.777Z,-2.30
2023-02-09T05:36:34.495Z,-2.20
2023-02-09T05:39:05.258Z,-2.40
2023-02-09T05:41:53.625Z,-2.50
2023-02-09T05:44:24.537Z,-2.70
2023-02-09T05:46:55.159Z,-2.80
2023-02-09T05:49:25.773Z,-2.70
2023-02-09T05:51:56.602Z,-2.80
2023-02-09T05:54:27.280Z,-2.70
2023-02-09T05:56:58.254Z,-2.70
2023-02-09T05:59:29.061Z,-2.70
2023-02-09T06:02:00.241Z,-2.70
2023-02-09T06:04:31.349Z,-2.70
2023-02-09T06:07:02.278Z,-2.50
2023-02-09T06:09:32.902Z,-2.30
2023-02-09T06:12:03.945Z,-2.10
2023-02-09T06:14:34.942Z,-2.10
2023-02-09T06:17:06.108Z,-2.40
2023-02-09T06:19:37.050Z,-2.50
2023-02-09T06:22:08.345Z,-2.60
2023-02-09T06:24:39.042Z,-2.70
2023-02-09T06:27:09.663Z,-2.80
2023-02-09T06:29:40.410Z,-2.80
2023-02-09T06:32:11.546Z,-2.90
2023-02-09T06:34:46.090Z,-3.00
2023-02-09T06:37:17.294Z,-2.90
2023-02-09T06:39:48.330Z,-2.80
2023-02-09T06:42:19.507Z,-2.80
2023-02-09T06:44:51.559Z,-2.90
2023-02-09T06:47:22.473Z,-2.60
2023-02-09T06:49:53.417Z,-2.60
2023-02-09T06:52:24.485Z,-2.70
2023-02-09T06:54:55.415Z,-2.50
2023-02-09T06:57:26.410Z,-2.50
2023-02-09T06:59:57.430Z,-2.50
2023-02-09T07:02:28.386Z,-2.50
2023-02-09T07:04:59.492Z,-2.50
2023-02-09T07:07:30.722Z,-2.40
2023-02-09T07:10:01.554Z,-2.30
2023-02-09T07:12:32.724Z,-2.40
2023-02-09T07:15:03.653Z,-2.40
2023-02-09T07:17:34.717Z,-2.40
2023-02-09T07:20:07.524Z,-2.50
2023-02-09T07:22:38.373Z,-2.50
2023-02-09T07:25:11.103Z,-2.50
2023-02-09T07:27:45.399Z,-2.50
2023-02-09T07:30:18.716Z,-2.40
2023-02-09T07:32:49.634Z,-2.30
2023-02-09T07:35:21.242Z,-2.30
2023-02-09T07:37:52.591Z,-2.20
2023-02-09T07:40:23.454Z,-2.10
2023-02-09T07:42:55.049Z,-2.00
2023-02-09T07:45:25.928Z,-2.00
2023-02-09T07:47:57.125Z,-1.90
2023-02-09T07:50:27.985Z,-1.80
2023-02-09T07:52:58.793Z,-1.70
2023-02-09T07:55:29.530Z,-1.70
2023-02-09T07:58:00.252Z,-1.60
2023-02-09T08:00:31.009Z,-1.40
2023-02-09T08:03:01.749Z,-1.20
2023-02-09T08:05:35.499Z,-1.00
2023-02-09T08:08:06.415Z,-0.90
2023-02-09T08:10:38.215Z,-0.80
2023-02-09T08:13:08.910Z,-0.60
2023-02-09T08:15:44.028Z,-0.60
2023-02-09T08:18:18.311Z,-0.50
2023-02-09T08:20:50.008Z,-0.40
2023-02-09T08:23:23.955Z,-0.30
2023-02-09T08:25:55.176Z,-0.30
2023-02-09T08:28:41.787Z,-0.30
2023-02-09T08:30:58.738Z,-0.30
2023-02-09T08:33:29.874Z,-0.20
2023-02-09T08:36:01.054Z,-0.10
2023-02-09T08:38:31.710Z,0.00
2023-02-09T08:41:05.354Z,0.00
2023-02-09T08:43:36.226Z,0.10
2023-02-09T08:46:08.663Z,0.20
2023-02-09T08:48:41.862Z,0.20
2023-02-09T08:51:14.409Z,0.20
2023-02-09T08:53:46.690Z,0.40
2023-02-09T08:56:36.178Z,0.50
2023-02-09T08:59:07.813Z,0.60
2023-02-09T09:01:40.656Z,0.60
2023-02-09T09:04:12.138Z,0.60
2023-02-09T09:06:43.214Z,0.70
2023-02-09T09:09:14.415Z,0.80
2023-02-09T09:11:45.302Z,0.90
2023-02-09T09:14:16.200Z,1.10
2023-02-09T09:16:47.340Z,1.40
2023-02-09T09:19:18.335Z,1.50
2023-02-09T09:21:49.462Z,1.70
2023-02-09T09:24:21.304Z,1.90
2023-02-09T09:26:52.421Z,2.00
2023-02-09T09:29:23.405Z,2.10
2023-02-09T09:31:54.571Z,2.00
2023-02-09T09:34:25.550Z,2.20
2023-02-09T09:36:56.756Z,2.20
2023-02-09T09:39:28.216Z,2.20
2023-02-09T09:42:00.862Z,2.30
2023-02-09T09:44:35.280Z,2.30
2023-02-09T09:47:10.013Z,2.50
2023-02-09T09:49:41.142Z,2.40
2023-02-09T09:52:32.068Z,2.30
2023-02-09T09:55:05.150Z,2.30
2023-02-09T09:57:38.785Z,2.40
2023-02-09T10:00:16.443Z,2.40
2023-02-09T10:02:47.435Z,2.50
2023-02-09T10:05:21.617Z,2.60
2023-02-09T10:07:57.382Z,2.70
2023-02-09T10:10:36.485Z,2.80
2023-02-09T10:13:11.518Z,2.70
2023-02-09T10:15:45.319Z,2.70
2023-02-09T10:18:18.778Z,2.70
2023-02-09T10:20:52.084Z,2.80
2023-02-09T10:23:29.100Z,3.00
2023-02-09T10:26:05.317Z,3.00
2023-02-09T10:28:38.508Z,2.90
2023-02-09T10:31:15.829Z,3.00
2023-02-09T10:33:48.987Z,3.20
2023-02-09T10:36:30.198Z,3.50
2023-02-09T10:39:18.060Z,3.50
2023-02-09T10:41:52.156Z,3.60
2023-02-09T10:44:25.530Z,3.70
2023-02-09T10:47:10.766Z,3.80
2023-02-09T10:49:41.767Z,3.80
2023-02-09T10:52:20.365Z,3.80
2023-02-09T10:54:53.926Z,4.00
2023-02-09T10:57:28.784Z,4.10
2023-02-09T11:00:02.205Z,4.10
2023-02-09T11:02:39.233Z,4.00
2023-02-09T11:08:20.128Z,4.20
2023-02-09T11:11:01.495Z,4.20
2023-02-09T11:13:34.114Z,4.30
2023-02-09T11:16:43.758Z,4.50
2023-02-09T11:19:22.809Z,4.50
2023-02-09T11:21:59.925Z,4.40
2023-02-09T11:24:45.654Z,4.50
2023-02-09T11:27:24.054Z,4.70
2023-02-09T11:29:57.981Z,4.80
2023-02-09T11:32:32.057Z,4.70
2023-02-09T11:35:13.377Z,4.90
2023-02-09T11:37:53.972Z,5.10
2023-02-09T11:40:32.385Z,5.00
2023-02-09T11:43:10.287Z,5.30
2023-02-09T11:45:45.797Z,5.50
2023-02-09T11:48:21.607Z,5.40
2023-02-09T11:51:00.517Z,5.30
2023-02-09T11:53:39.558Z,5.30
2023-02-09T11:56:13.084Z,5.30
2023-02-09T11:58:53.724Z,5.10
2023-02-09T12:01:33.870Z,5.40
2023-02-09T12:04:10.640Z,5.50
2023-02-09T12:06:44.744Z,5.90
2023-02-09T12:09:42.878Z,6.10
2023-02-09T12:12:19.345Z,5.90
2023-02-09T12:15:03.379Z,5.90
2023-02-09T12:17:40.144Z,6.30
2023-02-09T12:20:25.969Z,6.80
2023-02-09T12:23:02.288Z,6.60
2023-02-09T12:25:53.171Z,6.70
2023-02-09T12:28:49.662Z,7.00
2023-02-09T12:31:28.148Z,7.70
2023-02-09T12:34:31.014Z,7.60
2023-02-09T12:37:36.288Z,7.30
2023-02-09T12:40:25.442Z,7.10
2023-02-09T12:43:14.643Z,7.30
2023-02-09T12:45:46.387Z,7.80
2023-02-09T12:48:19.764Z,7.60
2023-02-09T12:50:54.179Z,7.90
2023-02-09T12:53:45.950Z,7.90
2023-02-09T12:56:36.889Z,8.20
2023-02-09T12:59:22.503Z,8.70
2023-02-09T13:02:31.528Z,8.30
2023-02-09T13:05:09.423Z,8.60
2023-02-09T13:07:47.419Z,9.60
2023-02-09T13:10:27.148Z,10.10
2023-02-09T13:13:01.082Z,10.00
2023-02-09T13:15:35.190Z,9.40
2023-02-09T13:18:12.229Z,9.40
2023-02-09T13:20:57.245Z,8.70
2023-02-09T13:23:34.902Z,8.50
2023-02-09T13:26:13.611Z,8.70
2023-02-09T13:28:44.215Z,8.10
2023-02-09T13:31:29.955Z,8.00
2023-02-09T13:34:04.493Z,8.40
2023-02-09T13:36:39.755Z,9.00
2023-02-09T13:39:15.338Z,9.10
2023-02-09T13:41:48.000Z,9.00
2023-02-09T13:44:26.667Z,9.20
2023-02-09T13:46:59.825Z,8.90
2023-02-09T13:49:32.092Z,8.70
2023-02-09T13:52:14.856Z,8.70
2023-02-09T13:54:46.184Z,8.40
2023-02-09T13:57:25.201Z,8.40
2023-02-09T13:59:56.021Z,8.30
2023-02-09T14:02:28.490Z,8.60
2023-02-09T14:05:02.373Z,8.70
2023-02-09T14:07:38.009Z,8.60
2023-02-09T14:10:13.798Z,8.60
2023-02-09T14:12:55.340Z,8.60
2023-02-09T14:15:48.359Z,8.50
2023-02-09T14:18:39.459Z,8.40
2023-02-09T14:21:26.092Z,8.40
2023-02-09T14:24:19.870Z,7.80
2023-02-09T14:26:54.597Z,7.90
2023-02-09T14:29:27.978Z,7.70
2023-02-09T14:32:00.766Z,7.80
2023-02-09T14:34:35.308Z,7.50
2023-02-09T14:37:19.363Z,7.40
2023-02-09T14:39:59.439Z,7.30
2023-02-09T14:42:30.627Z,7.20
2023-02-09T14:45:03.773Z,7.10
2023-02-09T14:47:40.626Z,7.00
2023-02-09T14:50:15.585Z,6.80
2023-02-09T14:52:48.016Z,6.70
2023-02-09T14:55:21.750Z,6.40
2023-02-09T14:57:52.963Z,6.60
2023-02-09T15:00:28.429Z,6.60
2023-02-09T15:03:00.423Z,6.60
2023-02-09T15:05:31.673Z,6.50
2023-02-09T15:08:06.476Z,6.50
2023-02-09T15:10:39.496Z,6.50
2023-02-09T15:13:12.199Z,6.40
2023-02-09T15:15:43.474Z,6.50
2023-02-09T15:18:18.426Z,6.30
2023-02-09T15:20:49.614Z,6.30
2023-02-09T15:23:20.671Z,6.30
2023-02-09T15:25:51.438Z,6.40
2023-02-09T15:28:27.048Z,6.30
2023-02-09T15:30:59.135Z,6.40
2023-02-09T15:33:30.768Z,6.30
2023-02-09T15:36:01.433Z,6.10
2023-02-09T15:38:32.078Z,6.00
2023-02-09T15:41:20.408Z,6.00
2023-02-09T15:44:08.593Z,6.00
2023-02-09T15:46:56.976Z,5.80
2023-02-09T15:49:27.646Z,5.80
2023-02-09T15:51:58.319Z,5.70
2023-02-09T15:54:32.048Z,5.50
2023-02-09T15:57:03.910Z,5.70
2023-02-09T15:59:34.812Z,5.70
2023-02-09T16:02:07.704Z,5.90
2023-02-09T16:04:38.385Z,5.90
2023-02-09T16:07:12.067Z,5.90
2023-02-09T16:09:44.560Z,5.80
2023-02-09T16:12:15.498Z,6.00
2023-02-09T16:14:46.135Z,5.90
2023-02-09T16:17:17.352Z,5.70
2023-02-09T16:19:49.225Z,5.50
2023-02-09T16:22:22.357Z,5.40
2023-02-09T16:24:53.380Z,5.40
2023-02-09T16:30:05.920Z,5.30
2023-02-09T16:32:37.246Z,5.20
2023-02-09T16:35:17.097Z,5.20
2023-02-09T16:37:44.861Z,5.20
2023-02-09T16:40:28.033Z,4.90
2023-02-09T16:43:00.988Z,4.80
2023-02-09T16:45:34.874Z,4.70
2023-02-09T16:48:06.400Z,4.50
2023-02-09T16:50:41.071Z,4.20
2023-02-09T16:53:19.198Z,3.90
2023-02-09T16:55:50.414Z,3.90
2023-02-09T16:58:21.270Z,4.00
2023-02-09T17:00:51.906Z,4.10
2023-02-09T17:03:25.408Z,4.20
2023-02-09T17:05:57.644Z,4.00
2023-02-09T17:08:32.212Z,4.00
2023-02-09T17:11:04.562Z,4.00
2023-02-09T17:13:35.551Z,3.90
2023-02-09T17:16:09.229Z,3.90
2023-02-09T17:18:42.924Z,4.00
2023-02-09T17:21:16.807Z,3.90
2023-02-09T17:23:48.172Z,3.80
2023-02-09T17:26:37.983Z,4.00
2023-02-09T17:29:08.924Z,3.90
2023-02-09T17:31:52.750Z,3.50
2023-02-09T17:34:17.665Z,3.60
2023-02-09T17:36:48.328Z,3.80
2023-02-09T17:39:19.417Z,3.90
2023-02-09T17:41:50.124Z,4.00
2023-02-09T17:44:39.601Z,4.00
2023-02-09T17:46:57.702Z,4.30
2023-02-09T17:49:28.391Z,4.20
2023-02-09T17:51:59.169Z,4.10
2023-02-09T17:54:29.834Z,3.90
2023-02-09T17:57:00.482Z,3.90
2023-02-09T17:59:31.028Z,4.00
2023-02-09T18:02:01.635Z,4.20
2023-02-09T18:04:33.539Z,4.00
2023-02-09T18:07:04.473Z,4.00
2023-02-09T18:09:35.026Z,3.90
2023-02-09T18:12:08.548Z,3.70
2023-02-09T18:14:39.147Z,3.30
2023-02-09T18:17:09.818Z,3.10
2023-02-09T18:19:40.458Z,3.00
2023-02-09T18:22:17.232Z,2.90
2023-02-09T18:27:26.554Z,2.70
2023-02-09T18:29:57.878Z,2.60
2023-02-09T18:32:28.460Z,2.60
2023-02-09T18:34:59.091Z,2.60
2023-02-09T18:37:29.897Z,2.40
2023-02-09T18:40:00.544Z,2.40
2023-02-09T18:42:31.133Z,2.30
2023-02-09T18:45:02.029Z,2.00
2023-02-09T18:47:32.901Z,1.60
2023-02-09T18:50:03.616Z,1.40
2023-02-09T18:52:35.013Z,1.20
2023-02-09T18:55:06.423Z,1.30
2023-02-09T18:57:37.017Z,1.40
2023-02-09T19:00:10.253Z,1.50
2023-02-09T19:02:43.393Z,1.70
2023-02-09T19:05:16.022Z,1.60
2023-02-09T19:07:48.305Z,1.50
2023-02-09T19:10:21.509Z,1.60
2023-02-09T19:12:52.849Z,1.70
2023-02-09T19:15:25.928Z,1.80
2023-02-09T19:17:57.082Z,1.80
2023-02-09T19:20:29.376Z,1.80
2023-02-09T19:23:00.251Z,1.70
2023-02-09T19:25:31.994Z,1.70
2023-02-09T19:28:02.717Z,1.70
2023-02-09T19:30:34.148Z,1.80
2023-02-09T19:33:05.077Z,1.70
2023-02-09T19:35:37.003Z,1.50
2023-02-09T19:38:07.670Z,1.30
2023-02-09T19:40:40.331Z,1.20
2023-02-09T19:43:12.699Z,1.10
2023-02-09T19:45:43.774Z,1.10
2023-02-09T19:48:14.745Z,1.10
2023-02-09T19:50:45.633Z,1.10
2023-02-09T19:53:17.336Z,0.90
2023-02-09T19:55:52.210Z,0.80
2023-02-09T19:58:23.557Z,0.80
2023-02-09T20:00:56.216Z,0.80
2023-02-09T20:03:28.992Z,0.80
2023-02-09T20:08:38.761Z,0.80
2023-02-09T20:11:12.977Z,0.80
2023-02-09T20:13:44.280Z,0.90
2023-02-09T20:16:18.053Z,0.90
2023-02-09T20:18:49.656Z,0.90
2023-02-09T20:21:21.785Z,0.90
2023-02-09T20:23:56.144Z,0.80
2023-02-09T20:26:29.360Z,0.70
2023-02-09T20:29:00.880Z,0.60
2023-02-09T20:31:34.891Z,0.70
2023-02-09T20:34:07.093Z,0.70
2023-02-09T20:36:40.283Z,0.70
2023-02-09T20:39:15.363Z,0.60
2023-02-09T20:42:05.704Z,0.50
2023-02-09T20:44:54.642Z,0.60
2023-02-09T20:47:26.102Z,0.60
2023-02-09T20:50:00.685Z,0.50
2023-02-09T20:52:32.351Z,0.50
2023-02-09T20:55:03.419Z,0.40
2023-02-09T20:57:34.866Z,0.30
2023-02-09T21:00:09.294Z,0.40
2023-02-09T21:02:40.708Z,0.30
2023-02-09T21:05:12.871Z,0.40
2023-02-09T21:07:43.998Z,0.70
2023-02-09T21:10:15.946Z,0.40
2023-02-09T21:12:47.390Z,0.40
2023-02-09T21:15:18.599Z,0.30
2023-02-09T21:17:49.313Z,0.30
2023-02-09T21:20:20.281Z,0.20
2023-02-09T21:22:51.522Z,0.30
2023-02-09T21:25:22.469Z,0.30
2023-02-09T21:27:54.939Z,0.30
2023-02-09T21:30:25.508Z,0.30
2023-02-09T21:32:57.199Z,0.30
2023-02-09T21:35:28.260Z,0.60
2023-02-09T21:37:58.881Z,0.60
2023-02-09T21:40:29.670Z,0.60
2023-02-09T21:43:00.291Z,0.40
2023-02-09T21:45:31.189Z,0.20
2023-02-09T21:48:02.298Z,0.20
2023-02-09T21:50:33.581Z,0.30
2023-02-09T21:53:04.148Z,0.30
2023-02-09T21:55:35.322Z,0.40
2023-02-09T21:58:06.070Z,0.40
2023-02-09T22:00:37.245Z,0.40
2023-02-09T22:03:07.919Z,0.60
2023-02-09T22:05:39.005Z,0.70
2023-02-09T22:08:09.777Z,0.70
2023-02-09T22:10:40.394Z,0.50
2023-02-09T22:13:11.001Z,0.50
2023-02-09T22:15:43.706Z,0.30
2023-02-09T22:18:15.190Z,0.20
2023-02-09T22:20:48.777Z,0.20
2023-02-09T22:23:20.442Z,0.20
2023-02-09T22:25:51.087Z,0.20
2023-02-09T22:28:21.697Z,0.10
2023-02-09T22:30:52.458Z,-0.10
2023-02-09T22:33:24.719Z,-0.10
2023-02-09T22:35:55.426Z,0.00
2023-02-09T22:38:26.162Z,-0.10
2023-02-09T22:40:56.807Z,-0.20
2023-02-09T22:43:28.138Z,0.00
2023-02-09T22:45:59.279Z,0.10
2023-02-09T22:48:30.791Z,0.30
2023-02-09T22:51:01.508Z,0.50
2023-02-09T22:53:32.125Z,0.40
2023-02-09T22:56:06.185Z,0.40
2023-02-09T22:58:36.811Z,0.50
2023-02-09T23:01:08.384Z,0.60
2023-02-09T23:03:39.278Z,0.80
2023-02-09T23:06:14.023Z,1.00
2023-02-09T23:08:44.885Z,1.10
2023-02-09T23:11:18.180Z,0.90
2023-02-09T23:13:51.081Z,0.80
2023-02-09T23:16:23.486Z,1.20
2023-02-09T23:18:55.990Z,0.80
2023-02-09T23:21:28.742Z,0.60
2023-02-09T23:23:59.926Z,0.70
2023-02-09T23:26:31.594Z,1.30
2023-02-09T23:29:03.902Z,1.20
2023-02-09T23:31:34.903Z,1.10
2023-02-09T23:34:06.352Z,1.20
2023-02-09T23:36:37.748Z,1.10
2023-02-09T23:39:09.435Z,1.20
2023-02-09T23:41:40.073Z,1.20
2023-02-09T23:44:10.832Z,0.80
2023-02-09T23:46:41.542Z,0.60
2023-02-09T23:49:12.174Z,0.40
2023-02-09T23:51:42.776Z,0.50
2023-02-09T23:54:13.601Z,0.70
2023-02-09T23:56:46.484Z,1.00
2023-02-09T23:59:17.761Z,0.60
